createdAt,value
2023-05-03T00:00:45.877Z,80.75
2023-05-03T00:03:53.014Z,81.35
2023-05-03T00:06:56.081Z,81.40
2023-05-03T00:09:59.574Z,81.59
2023-05-03T00:13:02.316Z,81.57
2023-05-03T00:16:05.419Z,81.07
2023-05-03T00:19:15.036Z,81.17
2023-05-03T00:22:27.346Z,81.14
2023-05-03T00:25:30.007Z,80.49
2023-05-03T00:28:32.683Z,80.30
2023-05-03T00:31:35.545Z,80.33
2023-05-03T00:34:39.841Z,79.94
2023-05-03T00:37:42.462Z,80.29
2023-05-03T00:40:45.084Z,80.16
2023-05-03T00:43:47.749Z,79.61
2023-05-03T00:46:50.629Z,79.54
2023-05-03T00:49:54.695Z,79.57
2023-05-03T00:52:57.849Z,80.49
2023-05-03T00:56:01.966Z,80.22
2023-05-03T00:59:05.947Z,80.04
2023-05-03T01:02:09.377Z,79.89
2023-05-03T01:05:13.861Z,79.35
2023-05-03T01:08:21.872Z,79.10
2023-05-03T01:11:28.414Z,78.97
2023-05-03T01:14:41.146Z,79.17
2023-05-03T01:17:55.335Z,79.47
2023-05-03T01:21:00.763Z,79.15
2023-05-03T01:24:08.807Z,79.60
2023-05-03T01:27:13.654Z,79.45
2023-05-03T01:30:17.039Z,79.36
2023-05-03T01:33:27.001Z,80.14
2023-05-03T01:36:33.338Z,80.48
2023-05-03T01:39:42.059Z,80.12
2023-05-03T01:42:46.276Z,80.06
2023-05-03T01:45:49.743Z,80.28
2023-05-03T01:48:52.414Z,80.63
2023-05-03T01:51:55.073Z,81.22
2023-05-03T01:54:57.963Z,81.52
2023-05-03T01:58:02.224Z,81.99
2023-05-03T02:01:05.576Z,81.82
2023-05-03T02:04:08.374Z,81.25
2023-05-03T02:07:11.060Z,80.98
2023-05-03T02:10:14.941Z,80.71
2023-05-03T02:13:19.098Z,80.39
2023-05-03T02:16:21.787Z,81.08
2023-05-03T02:19:24.451Z,81.04
2023-05-03T02:22:27.118Z,80.86
2023-05-03T02:25:29.889Z,80.99
2023-05-03T02:28:34.024Z,80.51
2023-05-03T02:31:36.673Z,80.38
2023-05-03T02:34:40.151Z,80.18
2023-05-03T02:37:42.793Z,79.41
2023-05-03T02:40:45.590Z,80.33
2023-05-03T02:43:49.584Z,81.24
2023-05-03T02:46:52.314Z,81.27
2023-05-03T02:49:54.939Z,82.05
2023-05-03T02:52:57.648Z,81.39
2023-05-03T02:56:00.388Z,82.25
2023-05-03T02:59:04.509Z,82.09
2023-05-03T03:02:07.357Z,81.91
2023-05-03T03:05:10.633Z,81.43
2023-05-03T03:08:13.289Z,81.67
2023-05-03T03:11:16.029Z,81.81
2023-05-03T03:14:20.152Z,80.93
2023-05-03T03:17:23.014Z,81.25
2023-05-03T03:20:25.748Z,81.64
2023-05-03T03:23:28.391Z,82.41
2023-05-03T03:26:31.138Z,83.01
2023-05-03T03:29:36.321Z,82.45
2023-05-03T03:32:39.011Z,82.08
2023-05-03T03:35:41.875Z,81.99
2023-05-03T03:38:44.606Z,83.34
2023-05-03T03:41:47.362Z,84.23
2023-05-03T03:44:51.329Z,84.84
2023-05-03T03:47:54.115Z,84.96
2023-05-03T03:50:56.922Z,84.62
2023-05-03T03:54:00.033Z,84.93
2023-05-03T03:57:02.970Z,84.81
2023-05-03T04:00:11.655Z,84.74
2023-05-03T04:03:14.458Z,84.92
2023-05-03T04:06:17.177Z,85.27
2023-05-03T04:09:20.020Z,85.25
2023-05-03T04:12:22.714Z,85.06
2023-05-03T04:15:26.768Z,84.60
2023-05-03T04:18:29.390Z,84.72
2023-05-03T04:21:32.356Z,84.61
2023-05-03T04:24:35.801Z,84.82
2023-05-03T04:27:38.460Z,84.33
2023-05-03T04:30:43.339Z,84.49
2023-05-03T04:33:46.409Z,84.05
2023-05-03T04:36:49.116Z,84.17
2023-05-03T04:39:51.826Z,83.86
2023-05-03T04:42:54.602Z,83.70
2023-05-03T04:45:59.233Z,83.83
2023-05-03T04:49:01.955Z,82.79
2023-05-03T04:52:04.905Z,82.72
2023-05-03T04:55:10.255Z,82.30
2023-05-03T04:58:12.896Z,82.59
2023-05-03T05:01:16.952Z,81.83
2023-05-03T05:04:19.749Z,82.17
2023-05-03T05:07:22.476Z,81.85
2023-05-03T05:10:25.130Z,81.26
2023-05-03T05:13:27.925Z,81.59
2023-05-03T05:16:32.520Z,80.99
2023-05-03T05:19:35.924Z,81.17
2023-05-03T05:22:38.750Z,81.47
2023-05-03T05:25:41.496Z,81.64
2023-05-03T05:28:44.210Z,81.69
2023-05-03T05:31:48.478Z,81.28
2023-05-03T05:34:55.084Z,81.35
2023-05-03T05:37:57.797Z,80.73
2023-05-03T05:41:00.666Z,80.52
2023-05-03T05:44:03.712Z,80.39
2023-05-03T05:47:08.919Z,80.28
2023-05-03T05:50:18.022Z,80.38
2023-05-03T05:53:21.546Z,80.25
2023-05-03T05:56:24.533Z,80.64
2023-05-03T05:59:27.392Z,79.52
2023-05-03T06:02:31.515Z,79.70
2023-05-03T06:05:34.454Z,79.82
2023-05-03T06:08:37.279Z,79.34
2023-05-03T06:11:39.992Z,79.08
2023-05-03T06:14:55.285Z,78.96
2023-05-03T06:18:06.096Z,78.81
2023-05-03T06:21:10.092Z,79.76
2023-05-03T06:24:14.899Z,79.31
2023-05-03T06:27:17.655Z,78.41
2023-05-03T06:30:20.678Z,76.91
2023-05-03T06:33:25.200Z,75.95
2023-05-03T06:36:29.922Z,74.41
2023-05-03T06:39:32.936Z,73.98
2023-05-03T06:42:35.658Z,73.58
2023-05-03T06:45:39.556Z,73.20
2023-05-03T06:48:43.609Z,74.00
2023-05-03T06:51:46.331Z,73.14
2023-05-03T06:54:49.088Z,72.40
2023-05-03T06:57:52.492Z,72.38
2023-05-03T07:00:55.212Z,70.85
2023-05-03T07:03:59.565Z,70.99
2023-05-03T07:07:02.528Z,70.28
2023-05-03T07:10:06.033Z,69.76
2023-05-03T07:13:08.916Z,70.92
2023-05-03T07:16:11.647Z,68.30
2023-05-03T07:19:15.779Z,67.25
2023-05-03T07:22:20.727Z,68.02
2023-05-03T07:25:23.631Z,68.84
2023-05-03T07:28:26.677Z,67.46
2023-05-03T07:31:30.029Z,68.14
2023-05-03T07:34:34.061Z,66.16
2023-05-03T07:37:37.215Z,66.04
2023-05-03T07:40:40.180Z,66.21
2023-05-03T07:43:42.948Z,65.11
2023-05-03T07:46:45.778Z,63.75
2023-05-03T07:49:50.900Z,63.17
2023-05-03T07:52:53.699Z,63.44
2023-05-03T07:55:57.011Z,63.82
2023-05-03T07:59:09.525Z,64.43
2023-05-03T08:02:13.073Z,63.39
2023-05-03T08:05:17.923Z,63.91
2023-05-03T08:08:20.923Z,60.90
2023-05-03T08:11:23.802Z,61.34
2023-05-03T08:14:27.928Z,60.97
2023-05-03T08:17:30.655Z,61.66
2023-05-03T08:20:36.781Z,59.83
2023-05-03T08:23:39.531Z,60.06
2023-05-03T08:26:42.594Z,61.43
2023-05-03T08:29:45.304Z,61.40
2023-05-03T08:32:48.099Z,60.77
2023-05-03T08:35:52.659Z,59.55
2023-05-03T08:38:55.433Z,61.02
2023-05-03T08:41:58.571Z,60.69
2023-05-03T08:45:01.301Z,60.68
2023-05-03T08:48:04.830Z,59.76
2023-05-03T08:51:11.135Z,60.57
2023-05-03T08:54:14.778Z,60.59
2023-05-03T08:57:18.489Z,60.13
2023-05-03T09:00:29.563Z,59.84
2023-05-03T09:03:32.455Z,61.94
2023-05-03T09:06:37.140Z,60.51
2023-05-03T09:09:40.240Z,61.65
2023-05-03T09:12:45.559Z,58.90
2023-05-03T09:15:54.532Z,63.56
2023-05-03T09:18:58.906Z,62.16
2023-05-03T09:22:08.290Z,59.29
2023-05-03T09:25:12.120Z,59.72
2023-05-03T09:28:15.557Z,58.34
2023-05-03T09:31:18.846Z,57.03
2023-05-03T09:34:24.795Z,55.94
2023-05-03T09:37:38.538Z,58.62
2023-05-03T09:40:49.026Z,58.01
2023-05-03T09:43:55.578Z,57.44
2023-05-03T09:47:05.303Z,56.21
2023-05-03T09:50:09.154Z,59.01
2023-05-03T09:53:13.833Z,59.98
2023-05-03T09:56:17.181Z,56.99
2023-05-03T09:59:20.889Z,54.82
2023-05-03T10:02:24.001Z,55.45
2023-05-03T10:05:31.958Z,54.12
2023-05-03T10:08:39.866Z,56.35
2023-05-03T10:11:47.262Z,53.31
2023-05-03T10:14:53.522Z,53.51
2023-05-03T10:17:59.051Z,56.25
2023-05-03T10:21:05.367Z,53.01
2023-05-03T10:24:14.162Z,54.19
2023-05-03T10:27:18.093Z,52.25
2023-05-03T10:30:32.664Z,53.61
2023-05-03T10:33:36.450Z,54.95
2023-05-03T10:36:49.519Z,52.94
2023-05-03T10:39:58.463Z,53.85
2023-05-03T10:43:02.400Z,54.51
2023-05-03T10:46:06.713Z,53.09
2023-05-03T10:49:20.811Z,52.43
2023-05-03T10:52:51.384Z,50.78
2023-05-03T10:56:08.030Z,49.88
2023-05-03T10:59:10.867Z,51.54
2023-05-03T11:02:22.495Z,49.27
2023-05-03T11:05:28.564Z,48.54
2023-05-03T11:08:37.284Z,49.87
2023-05-03T11:11:42.140Z,49.90
2023-05-03T11:14:45.364Z,49.72
2023-05-03T11:17:48.097Z,47.59
2023-05-03T11:20:51.085Z,50.99
2023-05-03T11:23:54.006Z,48.42
2023-05-03T11:26:58.312Z,49.00
2023-05-03T11:30:01.555Z,47.70
2023-05-03T11:33:04.830Z,47.44
2023-05-03T11:36:09.850Z,46.17
2023-05-03T11:39:14.453Z,45.70
2023-05-03T11:42:18.861Z,46.72
2023-05-03T11:45:23.399Z,46.50
2023-05-03T11:48:27.777Z,44.42
2023-05-03T11:51:31.382Z,44.92
2023-05-03T11:54:34.189Z,46.18
2023-05-03T11:57:39.408Z,48.23
2023-05-03T12:00:45.186Z,46.02
2023-05-03T12:03:49.556Z,44.74
2023-05-03T12:06:54.857Z,46.69
2023-05-03T12:10:10.391Z,45.71
2023-05-03T12:13:29.959Z,44.54
2023-05-03T12:16:49.912Z,46.83
2023-05-03T12:20:12.288Z,45.73
2023-05-03T12:23:18.848Z,44.75
2023-05-03T12:26:22.331Z,42.87
2023-05-03T12:29:29.422Z,43.78
2023-05-03T12:32:32.468Z,41.88
2023-05-03T12:35:38.281Z,43.19
2023-05-03T12:38:43.732Z,43.04
2023-05-03T12:44:53.795Z,40.96
2023-05-03T12:47:56.811Z,40.29
2023-05-03T12:51:17.721Z,41.46
2023-05-03T12:54:26.642Z,40.58
2023-05-03T12:57:30.677Z,41.26
2023-05-03T13:00:36.625Z,40.69
2023-05-03T13:03:44.267Z,38.72
2023-05-03T13:06:57.796Z,40.77
2023-05-03T13:13:07.851Z,37.33
2023-05-03T13:16:12.095Z,40.05
2023-05-03T13:19:15.097Z,42.05
2023-05-03T13:22:18.584Z,41.38
2023-05-03T13:25:21.346Z,39.96
2023-05-03T13:28:24.952Z,38.65
2023-05-03T13:31:30.212Z,40.76
2023-05-03T13:34:33.068Z,41.11
2023-05-03T13:37:35.857Z,41.13
2023-05-03T13:40:38.567Z,39.22
2023-05-03T13:43:42.005Z,38.43
2023-05-03T13:46:46.654Z,37.77
2023-05-03T13:49:49.516Z,40.03
2023-05-03T13:52:52.331Z,40.90
2023-05-03T13:55:55.266Z,40.76
2023-05-03T13:58:58.648Z,39.10
2023-05-03T14:02:03.088Z,37.54
2023-05-03T14:05:06.883Z,39.25
2023-05-03T14:08:09.762Z,38.88
2023-05-03T14:11:16.081Z,38.06
2023-05-03T14:14:18.791Z,37.52
2023-05-03T14:17:22.869Z,37.88
2023-05-03T14:20:25.908Z,38.16
2023-05-03T14:23:28.684Z,36.28
2023-05-03T14:26:33.925Z,36.37
2023-05-03T14:29:36.666Z,35.35
2023-05-03T14:32:40.842Z,37.40
2023-05-03T14:35:44.002Z,37.63
2023-05-03T14:38:46.798Z,40.67
2023-05-03T14:41:51.040Z,38.03
2023-05-03T14:44:53.759Z,38.14
2023-05-03T14:47:57.946Z,39.80
2023-05-03T14:51:00.667Z,39.66
2023-05-03T14:54:03.375Z,38.60
2023-05-03T14:57:06.091Z,38.89
2023-05-03T15:00:14.307Z,38.62
2023-05-03T15:03:18.496Z,39.79
2023-05-03T15:06:25.535Z,40.57
2023-05-03T15:09:28.316Z,39.08
2023-05-03T15:12:31.223Z,37.52
2023-05-03T15:15:34.155Z,37.37
2023-05-03T15:18:38.169Z,39.36
2023-05-03T15:21:48.005Z,38.60
2023-05-03T15:24:50.846Z,40.65
2023-05-03T15:27:53.689Z,40.35
2023-05-03T15:30:56.344Z,38.27
2023-05-03T15:34:02.537Z,37.48
2023-05-03T15:37:05.658Z,38.84
2023-05-03T15:40:10.777Z,38.98
2023-05-03T15:43:13.552Z,37.76
2023-05-03T15:46:16.572Z,39.60
2023-05-03T15:49:20.633Z,39.35
2023-05-03T15:52:23.973Z,37.62
2023-05-03T15:55:26.892Z,37.53
2023-05-03T15:58:30.469Z,36.94
2023-05-03T16:01:33.269Z,38.89
2023-05-03T16:04:38.186Z,38.52
2023-05-03T16:07:40.908Z,38.14
2023-05-03T16:10:43.893Z,39.19
2023-05-03T16:13:46.745Z,38.37
2023-05-03T16:16:50.444Z,40.74
2023-05-03T16:19:54.578Z,40.36
2023-05-03T16:22:57.592Z,39.52
2023-05-03T16:26:00.299Z,39.50
2023-05-03T16:29:03.143Z,39.33
2023-05-03T16:32:09.764Z,37.47
2023-05-03T16:35:14.174Z,39.07
2023-05-03T16:38:16.951Z,40.06
2023-05-03T16:41:19.648Z,38.75
2023-05-03T16:44:22.407Z,38.39
2023-05-03T16:47:25.861Z,39.94
2023-05-03T16:50:31.183Z,38.65
2023-05-03T16:53:33.859Z,40.15
2023-05-03T16:56:37.480Z,40.14
2023-05-03T16:59:40.345Z,40.26
2023-05-03T17:02:43.088Z,41.05
2023-05-03T17:05:47.411Z,41.15
2023-05-03T17:08:50.289Z,41.59
2023-05-03T17:11:53.036Z,41.37
2023-05-03T17:14:56.360Z,41.28
2023-05-03T17:17:59.011Z,40.82
2023-05-03T17:21:04.699Z,40.27
2023-05-03T17:24:08.056Z,40.87
2023-05-03T17:27:11.159Z,41.10
2023-05-03T17:30:14.790Z,40.84
2023-05-03T17:33:17.756Z,41.26
2023-05-03T17:36:22.629Z,41.47
2023-05-03T17:39:25.921Z,42.81
2023-05-03T17:42:28.682Z,43.17
2023-05-03T17:45:31.421Z,43.01
2023-05-03T17:48:34.154Z,42.23
2023-05-03T17:51:38.279Z,41.90
2023-05-03T17:54:41.699Z,41.77
2023-05-03T17:57:45.686Z,42.30
2023-05-03T18:00:48.760Z,43.42
2023-05-03T18:03:51.793Z,43.12
2023-05-03T18:06:55.994Z,44.41
2023-05-03T18:09:59.695Z,43.41
2023-05-03T18:13:04.660Z,43.78
2023-05-03T18:16:08.514Z,44.57
2023-05-03T18:19:11.876Z,45.15
2023-05-03T18:22:15.896Z,45.87
2023-05-03T18:25:18.609Z,48.49
2023-05-03T18:28:22.793Z,48.66
2023-05-03T18:31:25.751Z,48.44
2023-05-03T18:34:29.610Z,47.68
2023-05-03T18:37:33.711Z,47.89
2023-05-03T18:40:36.460Z,48.37
2023-05-03T18:43:39.318Z,48.85
2023-05-03T18:46:42.160Z,48.80
2023-05-03T18:49:48.499Z,49.09
2023-05-03T18:52:52.589Z,49.01
2023-05-03T18:55:55.649Z,50.44
2023-05-03T18:58:58.482Z,50.98
2023-05-03T19:02:01.801Z,50.92
2023-05-03T19:05:05.387Z,52.50
2023-05-03T19:08:09.488Z,52.62
2023-05-03T19:11:14.344Z,53.12
2023-05-03T19:14:17.242Z,52.79
2023-05-03T19:17:20.258Z,53.16
2023-05-03T19:20:22.958Z,52.25
2023-05-03T19:23:27.119Z,51.86
2023-05-03T19:26:30.362Z,52.99
2023-05-03T19:29:33.087Z,52.60
2023-05-03T19:32:38.991Z,52.63
2023-05-03T19:35:42.256Z,53.23
2023-05-03T19:38:46.422Z,52.24
2023-05-03T19:41:52.458Z,52.98
2023-05-03T19:44:55.079Z,53.51
2023-05-03T19:47:57.917Z,54.07
2023-05-03T19:51:00.801Z,55.01
2023-05-03T19:54:05.275Z,55.80
2023-05-03T19:57:08.220Z,55.71
2023-05-03T20:00:14.323Z,55.97
2023-05-03T20:03:17.145Z,56.23
2023-05-03T20:06:19.975Z,56.68
2023-05-03T20:09:24.227Z,56.74
2023-05-03T20:12:26.953Z,56.68
2023-05-03T20:15:29.713Z,56.77
2023-05-03T20:18:32.625Z,56.85
2023-05-03T20:21:35.372Z,56.94
2023-05-03T20:24:39.355Z,56.64
2023-05-03T20:27:42.033Z,56.29
2023-05-03T20:30:44.831Z,55.93
2023-05-03T20:33:47.982Z,56.72
2023-05-03T20:36:52.147Z,56.33
2023-05-03T20:39:56.622Z,56.20
2023-05-03T20:43:01.468Z,56.67
2023-05-03T20:46:04.525Z,57.16
2023-05-03T20:49:09.734Z,56.98
2023-05-03T20:52:13.266Z,57.89
2023-05-03T20:55:17.516Z,59.43
2023-05-03T20:58:20.261Z,60.22
2023-05-03T21:01:23.110Z,61.41
2023-05-03T21:04:26.110Z,62.13
2023-05-03T21:07:29.338Z,62.52
2023-05-03T21:10:33.314Z,63.07
2023-05-03T21:13:36.143Z,63.34
2023-05-03T21:16:39.023Z,63.85
2023-05-03T21:19:41.717Z,64.51
2023-05-03T21:22:44.504Z,64.79
2023-05-03T21:25:48.611Z,65.13
2023-05-03T21:28:51.493Z,66.09
2023-05-03T21:31:54.459Z,65.92
2023-05-03T21:34:57.846Z,66.04
2023-05-03T21:38:00.516Z,66.19
2023-05-03T21:41:05.461Z,66.99
2023-05-03T21:44:08.198Z,66.71
2023-05-03T21:47:11.039Z,67.22
2023-05-03T21:50:14.134Z,67.14
2023-05-03T21:53:17.587Z,67.46
2023-05-03T21:56:21.867Z,67.64
2023-05-03T21:59:24.918Z,68.09
2023-05-03T22:02:27.764Z,68.33
2023-05-03T22:05:31.000Z,68.65
2023-05-03T22:08:34.282Z,68.57
2023-05-03T22:11:38.592Z,68.81
2023-05-03T22:14:41.674Z,68.84
2023-05-03T22:17:44.463Z,69.05
2023-05-03T22:20:47.340Z,69.52
2023-05-03T22:23:50.070Z,69.83
2023-05-03T22:26:54.051Z,69.84
2023-05-03T22:29:56.799Z,69.57
2023-05-03T22:32:59.537Z,69.72
2023-05-03T22:36:02.234Z,69.89
2023-05-03T22:39:05.717Z,70.64
2023-05-03T22:42:09.739Z,70.83
2023-05-03T22:45:12.687Z,70.49
2023-05-03T22:48:15.508Z,71.14
2023-05-03T22:51:19.351Z,71.27
2023-05-03T22:54:22.601Z,71.42
2023-05-03T22:57:26.716Z,71.46
2023-05-03T23:00:29.445Z,71.52
2023-05-03T23:03:32.416Z,71.27
2023-05-03T23:06:35.227Z,71.76
2023-05-03T23:09:38.130Z,71.52
2023-05-03T23:12:42.289Z,71.59
2023-05-03T23:15:45.138Z,71.43
2023-05-03T23:18:47.904Z,71.57
2023-05-03T23:21:50.948Z,70.81
2023-05-03T23:24:53.567Z,71.53
2023-05-03T23:27:57.631Z,71.57
2023-05-03T23:31:00.977Z,71.56
2023-05-03T23:34:05.043Z,71.06
2023-05-03T23:37:07.833Z,71.01
2023-05-03T23:40:12.917Z,70.69
2023-05-03T23:43:17.053Z,70.87
2023-05-03T23:46:19.746Z,70.88
2023-05-03T23:49:22.561Z,70.73
2023-05-03T23:52:25.425Z,70.64
2023-05-03T23:55:28.110Z,71.03
2023-05-03T23:58:32.164Z,70.14
